createdAt,value
2019-05-10T00:01:20.868Z,75.53
2019-05-10T00:03:54.697Z,71.63
2019-05-10T00:06:34.137Z,76.65
2019-05-10T00:09:10.952Z,67.27
2019-05-10T00:11:48.439Z,59.90
2019-05-10T00:14:19.913Z,73.20
2019-05-10T00:16:54.208Z,58.20
2019-05-10T00:19:28.287Z,60.63
2019-05-10T00:22:02.060Z,73.80
2019-05-10T00:24:35.924Z,58.23
2019-05-10T00:27:11.179Z,64.50
2019-05-10T00:29:44.986Z,64.53
2019-05-10T00:32:20.191Z,70.50
2019-05-10T00:34:54.200Z,66.60
2019-05-10T00:37:29.572Z,53.98
2019-05-10T00:40:06.035Z,57.27
2019-05-10T00:42:40.563Z,65.47
2019-05-10T00:45:15.945Z,63.77
2019-05-10T00:47:50.865Z,62.07
2019-05-10T00:50:29.058Z,65.47
2019-05-10T00:53:05.248Z,58.20
2019-05-10T00:55:40.496Z,66.20
2019-05-10T00:58:16.157Z,65.20
2019-05-10T01:00:54.989Z,62.20
2019-05-10T01:03:33.427Z,58.17
2019-05-10T01:06:07.258Z,58.90
2019-05-10T01:08:45.768Z,62.80
2019-05-10T01:11:21.529Z,74.63
2019-05-10T01:13:57.074Z,57.40
2019-05-10T01:16:35.560Z,54.85
2019-05-10T01:19:11.825Z,91.57
2019-05-10T01:21:47.632Z,77.62
2019-05-10T01:24:22.371Z,79.85
2019-05-10T01:26:57.884Z,77.08
2019-05-10T01:29:32.934Z,80.27
2019-05-10T01:32:13.981Z,73.62
2019-05-10T01:34:47.765Z,82.97
2019-05-10T01:37:27.145Z,77.70
2019-05-10T01:40:09.006Z,81.28
2019-05-10T01:42:44.678Z,78.20
2019-05-10T01:45:24.889Z,91.53
2019-05-10T01:48:00.458Z,94.07
2019-05-10T01:50:37.427Z,84.17
2019-05-10T01:53:11.418Z,76.65
2019-05-10T01:55:52.190Z,78.87
2019-05-10T01:58:22.239Z,86.00
2019-05-10T02:00:57.113Z,93.37
2019-05-10T02:03:31.320Z,80.92
2019-05-10T02:06:05.497Z,89.33
2019-05-10T02:08:39.554Z,89.30
2019-05-10T02:11:13.727Z,95.83
2019-05-10T02:13:49.784Z,87.37
2019-05-10T02:16:25.945Z,86.67
2019-05-10T02:19:00.477Z,85.90
2019-05-10T02:21:35.099Z,88.40
2019-05-10T02:24:10.059Z,93.87
2019-05-10T02:26:44.387Z,97.83
2019-05-10T02:29:19.970Z,88.67
2019-05-10T02:31:53.767Z,94.30
2019-05-10T02:34:29.206Z,95.20
2019-05-10T02:37:03.333Z,90.77
2019-05-10T02:39:37.617Z,88.72
2019-05-10T02:42:19.301Z,88.20
2019-05-10T02:44:52.325Z,92.73
2019-05-10T02:47:27.848Z,92.23
2019-05-10T02:50:02.789Z,90.63
2019-05-10T02:52:37.571Z,79.13
2019-05-10T02:55:13.575Z,80.73
2019-05-10T02:57:50.397Z,90.87
2019-05-10T03:00:26.023Z,92.43
2019-05-10T03:03:02.321Z,97.80
2019-05-10T03:05:39.754Z,85.62
2019-05-10T03:08:15.464Z,89.60
2019-05-10T03:10:57.709Z,79.37
2019-05-10T03:13:34.737Z,76.95
2019-05-10T03:16:09.102Z,68.85
2019-05-10T03:18:45.103Z,75.80
2019-05-10T03:21:20.670Z,77.00
2019-05-10T03:23:57.478Z,79.25
2019-05-10T03:26:50.170Z,73.00
2019-05-10T03:29:18.982Z,66.43
2019-05-10T03:31:52.559Z,70.53
2019-05-10T03:34:26.855Z,70.37
2019-05-10T03:37:09.072Z,74.53
2019-05-10T03:39:43.173Z,75.08
2019-05-10T03:42:18.820Z,73.60
2019-05-10T03:44:54.586Z,64.97
2019-05-10T03:47:28.315Z,68.47
2019-05-10T03:50:03.682Z,77.80
2019-05-10T03:52:38.745Z,82.57
2019-05-10T03:55:29.533Z,73.53
2019-05-10T03:58:03.879Z,67.57
2019-05-10T04:00:37.624Z,69.07
2019-05-10T04:03:12.972Z,61.53
2019-05-10T04:05:47.536Z,65.15
2019-05-10T04:08:21.506Z,58.40
2019-05-10T04:10:55.578Z,59.63
2019-05-10T04:13:29.842Z,61.60
2019-05-10T04:16:03.646Z,57.15
2019-05-10T04:18:39.483Z,74.05
2019-05-10T04:21:14.138Z,71.50
2019-05-10T04:23:47.991Z,64.97
2019-05-10T04:26:25.141Z,61.43
2019-05-10T04:29:01.576Z,61.63
2019-05-10T04:31:48.250Z,59.33
2019-05-10T04:34:22.816Z,73.30
2019-05-10T04:36:57.410Z,65.00
2019-05-10T04:39:34.021Z,60.00
2019-05-10T04:42:09.578Z,57.50
2019-05-10T04:44:53.141Z,61.37
2019-05-10T04:47:24.819Z,55.40
2019-05-10T04:49:58.391Z,61.93
2019-05-10T04:52:32.181Z,67.43
2019-05-10T04:55:07.115Z,66.07
2019-05-10T04:57:50.633Z,70.57
2019-05-10T05:00:20.517Z,62.70
2019-05-10T05:02:56.197Z,60.60
2019-05-10T05:05:30.381Z,62.80
2019-05-10T05:08:07.632Z,55.90
2019-05-10T05:10:41.687Z,63.42
2019-05-10T05:13:16.231Z,61.83
2019-05-10T05:15:51.444Z,62.00
2019-05-10T05:18:27.034Z,60.53
2019-05-10T05:21:04.567Z,61.65
2019-05-10T05:23:39.126Z,58.75
2019-05-10T05:26:14.087Z,58.17
2019-05-10T05:28:48.381Z,55.13
2019-05-10T05:31:26.823Z,62.30
2019-05-10T05:34:04.817Z,60.83
2019-05-10T05:36:36.600Z,52.73
2019-05-10T05:39:10.931Z,42.87
2019-05-10T05:41:49.129Z,45.58
2019-05-10T05:44:20.373Z,58.92
2019-05-10T05:46:54.286Z,49.93
2019-05-10T05:49:27.813Z,60.73
2019-05-10T05:52:03.062Z,47.70
2019-05-10T05:54:36.920Z,42.90
2019-05-10T05:57:10.676Z,45.93
2019-05-10T05:59:44.564Z,55.83
2019-05-10T06:02:27.927Z,49.63
2019-05-10T06:05:02.337Z,50.95
2019-05-10T06:07:37.978Z,46.23
2019-05-10T06:10:16.924Z,46.02
2019-05-10T06:12:57.445Z,51.50
2019-05-10T06:15:32.402Z,68.13
2019-05-10T06:18:09.569Z,50.73
2019-05-10T06:23:29.273Z,48.47
2019-05-10T06:26:00.226Z,50.37
2019-05-10T06:28:57.369Z,51.13
2019-05-10T06:31:11.335Z,53.42
2019-05-10T06:33:46.805Z,49.30
2019-05-10T06:36:21.973Z,53.13
2019-05-10T06:38:57.676Z,40.13
2019-05-10T06:41:33.600Z,50.50
2019-05-10T06:44:07.527Z,44.30
2019-05-10T06:46:41.200Z,49.03
2019-05-10T06:49:18.351Z,49.23
2019-05-10T06:51:52.404Z,36.47
2019-05-10T06:54:25.977Z,44.63
2019-05-10T06:57:00.793Z,48.63
2019-05-10T06:59:35.110Z,37.70
2019-05-10T07:02:08.780Z,35.33
2019-05-10T07:04:42.375Z,36.03
2019-05-10T07:07:33.140Z,47.53
2019-05-10T07:10:17.901Z,37.00
2019-05-10T07:12:29.971Z,32.97
2019-05-10T07:15:03.414Z,36.77
2019-05-10T07:17:43.626Z,46.37
2019-05-10T07:20:12.709Z,37.88
2019-05-10T07:22:47.085Z,49.73
2019-05-10T07:25:20.615Z,43.20
2019-05-10T07:27:53.932Z,29.70
2019-05-10T07:30:41.180Z,43.03
2019-05-10T07:33:14.783Z,41.53
2019-05-10T07:35:48.623Z,34.78
2019-05-10T07:38:30.839Z,34.15
2019-05-10T07:40:59.546Z,37.50
2019-05-10T07:43:34.508Z,37.17
2019-05-10T07:46:09.875Z,29.50
2019-05-10T07:48:47.299Z,35.78
2019-05-10T07:51:22.736Z,42.65
2019-05-10T07:53:57.107Z,33.33
2019-05-10T07:56:30.221Z,34.53
2019-05-10T07:59:07.251Z,30.10
2019-05-10T08:01:40.630Z,31.33
2019-05-10T08:04:19.711Z,37.80
2019-05-10T08:06:52.309Z,38.63
2019-05-10T08:09:26.011Z,36.67
2019-05-10T08:12:03.262Z,35.33
2019-05-10T08:14:34.580Z,40.70
2019-05-10T08:17:09.598Z,36.07
2019-05-10T08:19:44.128Z,36.88
2019-05-10T08:22:22.838Z,39.23
2019-05-10T08:24:56.408Z,35.47
2019-05-10T08:27:32.478Z,31.00
2019-05-10T08:30:22.653Z,50.93
2019-05-10T08:32:44.926Z,38.33
2019-05-10T08:35:18.883Z,39.30
2019-05-10T08:37:54.230Z,47.63
2019-05-10T08:40:34.093Z,41.37
2019-05-10T08:43:06.664Z,34.10
2019-05-10T08:45:38.667Z,40.40
2019-05-10T08:51:07.486Z,37.43
2019-05-10T08:53:41.909Z,43.50
2019-05-10T08:56:21.085Z,41.87
2019-05-10T08:58:53.358Z,39.25
2019-05-10T09:01:30.130Z,42.50
2019-05-10T09:04:06.453Z,40.27
2019-05-10T09:06:41.892Z,32.53
2019-05-10T09:09:14.092Z,41.17
2019-05-10T09:11:48.062Z,37.93
2019-05-10T09:14:24.187Z,33.67
2019-05-10T09:17:01.668Z,42.25
2019-05-10T09:19:40.932Z,41.37
2019-05-10T09:22:15.980Z,43.20
2019-05-10T09:24:54.831Z,36.60
2019-05-10T09:30:54.117Z,33.67
2019-05-10T09:33:17.173Z,33.47
2019-05-10T09:35:59.262Z,39.30
2019-05-10T09:38:39.254Z,40.07
2019-05-10T09:41:12.837Z,45.10
2019-05-10T09:44:00.256Z,34.98
2019-05-10T09:46:43.450Z,51.00
2019-05-10T09:49:25.968Z,42.20
2019-05-10T09:52:12.405Z,36.60
2019-05-10T09:54:44.515Z,47.20
2019-05-10T09:57:20.205Z,38.97
2019-05-10T09:59:57.259Z,43.45
2019-05-10T10:02:37.275Z,47.23
2019-05-10T10:05:13.912Z,45.17
2019-05-10T10:07:52.449Z,50.65
2019-05-10T10:10:32.442Z,45.65
2019-05-10T10:13:13.475Z,41.10
2019-05-10T10:15:52.046Z,49.50
2019-05-10T10:21:30.565Z,38.97
2019-05-10T10:24:19.990Z,47.98
2019-05-10T10:27:07.278Z,55.87
2019-05-10T10:29:47.421Z,56.50
2019-05-10T10:32:24.653Z,51.77
2019-05-10T10:34:59.099Z,41.60
2019-05-10T10:37:38.095Z,47.53
2019-05-10T10:40:18.346Z,49.77
2019-05-10T10:42:58.174Z,54.35
2019-05-10T10:45:40.997Z,58.33
2019-05-10T10:48:38.045Z,57.25
2019-05-10T10:51:18.033Z,50.87
2019-05-10T10:54:09.073Z,58.85
2019-05-10T10:56:48.928Z,67.03
2019-05-10T10:59:32.913Z,75.92
2019-05-10T11:04:51.772Z,70.93
2019-05-10T11:07:38.521Z,65.43
2019-05-10T11:10:18.663Z,61.47
2019-05-10T11:12:47.585Z,64.97
2019-05-10T11:15:28.987Z,61.95
2019-05-10T11:18:03.835Z,55.10
2019-05-10T11:20:53.930Z,61.73
2019-05-10T11:23:34.158Z,65.52
2019-05-10T11:26:05.422Z,70.40
2019-05-10T11:28:44.018Z,67.57
2019-05-10T11:31:21.359Z,78.03
2019-05-10T11:34:06.061Z,89.07
2019-05-10T11:36:46.025Z,79.33
2019-05-10T11:42:37.390Z,105.67
2019-05-10T11:45:16.050Z,112.47
2019-05-10T11:48:02.851Z,97.23
2019-05-10T11:50:44.492Z,118.20
2019-05-10T11:53:25.820Z,98.80
2019-05-10T11:56:02.334Z,119.13
2019-05-10T11:58:45.936Z,103.83
2019-05-10T12:01:26.338Z,127.67
2019-05-10T12:04:28.785Z,86.63
2019-05-10T12:07:12.857Z,115.43
2019-05-10T12:09:53.424Z,134.17
2019-05-10T12:12:44.847Z,112.97
2019-05-10T12:15:06.539Z,130.65
2019-05-10T12:17:47.619Z,124.03
2019-05-10T12:20:30.328Z,125.13
2019-05-10T12:23:03.204Z,141.35
2019-05-10T12:26:20.248Z,120.50
2019-05-10T12:28:28.886Z,133.78
2019-05-10T12:31:07.489Z,147.50
2019-05-10T12:33:45.170Z,130.73
2019-05-10T12:36:25.437Z,131.17
2019-05-10T12:38:58.847Z,127.47
2019-05-10T12:41:39.648Z,129.50
2019-05-10T12:44:12.188Z,131.73
2019-05-10T12:46:55.319Z,125.87
2019-05-10T12:49:36.160Z,131.37
2019-05-10T12:52:14.286Z,151.07
2019-05-10T12:54:47.204Z,116.77
2019-05-10T12:57:24.148Z,119.23
2019-05-10T12:59:59.054Z,140.73
2019-05-10T13:02:37.894Z,127.60
2019-05-10T13:05:30.818Z,131.00
2019-05-10T13:08:23.079Z,149.73
2019-05-10T13:11:24.686Z,127.87
2019-05-10T13:14:29.111Z,129.47
2019-05-10T13:17:28.564Z,132.82
2019-05-10T13:20:04.906Z,120.37
2019-05-10T13:22:51.720Z,140.40
2019-05-10T13:25:37.550Z,134.25
2019-05-10T13:28:11.940Z,129.53
2019-05-10T13:30:48.128Z,92.87
2019-05-10T13:33:29.026Z,111.40
2019-05-10T13:36:01.987Z,101.45
2019-05-10T13:38:37.020Z,132.90
2019-05-10T13:41:17.477Z,120.67
2019-05-10T13:43:49.742Z,89.43
2019-05-10T13:46:33.460Z,111.07
2019-05-10T13:49:09.655Z,110.75
2019-05-10T13:51:53.273Z,97.60
2019-05-10T13:54:31.182Z,93.03
2019-05-10T13:57:17.096Z,103.25
2019-05-10T13:59:54.998Z,102.20
2019-05-10T14:02:32.773Z,101.00
2019-05-10T14:05:06.405Z,86.57
2019-05-10T14:07:49.681Z,106.43
2019-05-10T14:10:23.286Z,80.70
2019-05-10T14:13:01.947Z,77.43
2019-05-10T14:15:31.231Z,110.37
2019-05-10T14:18:05.621Z,80.97
2019-05-10T14:20:40.807Z,103.33
2019-05-10T14:23:17.792Z,104.70
2019-05-10T14:25:50.318Z,86.97
2019-05-10T14:28:25.369Z,73.07
2019-05-10T14:31:05.041Z,102.50
2019-05-10T14:33:39.455Z,97.83
2019-05-10T14:36:14.967Z,83.67
2019-05-10T14:38:54.047Z,73.60
2019-05-10T14:41:25.601Z,87.60
2019-05-10T14:44:00.140Z,84.63
2019-05-10T14:46:34.562Z,77.55
2019-05-10T14:49:15.541Z,83.03
2019-05-10T14:52:27.855Z,72.00
2019-05-10T14:55:34.440Z,73.78
2019-05-10T14:58:10.644Z,71.95
2019-05-10T15:01:03.132Z,72.40
2019-05-10T15:03:51.239Z,100.57
2019-05-10T15:06:30.855Z,84.00
2019-05-10T15:09:05.042Z,66.70
2019-05-10T15:11:40.101Z,81.50
2019-05-10T15:14:15.198Z,69.47
2019-05-10T15:17:01.300Z,64.77
2019-05-10T15:19:41.878Z,64.05
2019-05-10T15:22:18.426Z,79.47
2019-05-10T15:24:59.798Z,80.07
2019-05-10T15:27:34.767Z,61.30
2019-05-10T15:30:14.272Z,58.13
2019-05-10T15:32:49.617Z,70.33
2019-05-10T15:35:30.244Z,56.07
2019-05-10T15:38:05.525Z,61.25
2019-05-10T15:40:44.490Z,71.20
2019-05-10T15:43:18.956Z,64.10
2019-05-10T15:45:55.052Z,57.93
2019-05-10T15:48:41.283Z,68.47
2019-05-10T15:51:11.306Z,70.67
2019-05-10T15:54:04.963Z,70.50
2019-05-10T15:56:42.126Z,65.62
2019-05-10T15:59:28.396Z,72.50
2019-05-10T16:02:08.637Z,76.35
2019-05-10T16:04:44.769Z,59.30
2019-05-10T16:07:37.785Z,58.80
2019-05-10T16:10:14.239Z,63.45
2019-05-10T16:12:50.267Z,71.73
2019-05-10T16:15:26.735Z,58.47
2019-05-10T16:18:03.067Z,74.82
2019-05-10T16:20:38.883Z,67.12
2019-05-10T16:23:11.924Z,62.80
2019-05-10T16:25:48.555Z,76.00
2019-05-10T16:28:22.977Z,64.53
2019-05-10T16:30:56.906Z,88.03
2019-05-10T16:33:31.571Z,79.17
2019-05-10T16:36:08.325Z,66.05
2019-05-10T16:38:41.273Z,74.67
2019-05-10T16:41:17.344Z,87.40
2019-05-10T16:43:51.740Z,75.80
2019-05-10T16:46:26.060Z,74.83
2019-05-10T16:49:00.065Z,65.67
2019-05-10T16:51:49.637Z,66.50
2019-05-10T16:54:31.151Z,65.27
2019-05-10T16:57:11.644Z,79.40
2019-05-10T16:59:47.962Z,69.33
2019-05-10T17:02:22.405Z,74.83
2019-05-10T17:05:09.469Z,74.17
2019-05-10T17:07:41.888Z,70.35
2019-05-10T17:10:19.593Z,70.83
2019-05-10T17:13:20.030Z,70.57
2019-05-10T17:15:54.219Z,72.10
2019-05-10T17:18:29.775Z,72.63
2019-05-10T17:21:05.033Z,69.03
2019-05-10T17:23:41.583Z,81.45
2019-05-10T17:26:14.704Z,67.23
2019-05-10T17:28:49.007Z,58.13
2019-05-10T17:31:23.130Z,94.37
2019-05-10T17:34:00.930Z,71.37
2019-05-10T17:36:36.905Z,71.33
2019-05-10T17:39:12.228Z,74.20
2019-05-10T17:41:46.263Z,81.67
2019-05-10T17:44:23.150Z,73.33
2019-05-10T17:46:58.347Z,83.60
2019-05-10T17:49:32.344Z,89.83
2019-05-10T17:52:09.548Z,80.87
2019-05-10T17:54:46.494Z,88.20
2019-05-10T17:57:21.072Z,90.90
2019-05-10T17:59:55.520Z,83.33
2019-05-10T18:02:31.008Z,81.47
2019-05-10T18:05:06.075Z,73.23
2019-05-10T18:07:40.275Z,85.43
2019-05-10T18:10:14.811Z,77.53
2019-05-10T18:12:48.758Z,84.20
2019-05-10T18:15:27.745Z,91.70
2019-05-10T18:18:02.670Z,85.37
2019-05-10T18:20:40.969Z,95.25
2019-05-10T18:23:16.094Z,87.15
2019-05-10T18:25:46.277Z,101.03
2019-05-10T18:28:21.570Z,103.87
2019-05-10T18:30:55.721Z,98.87
2019-05-10T18:33:29.406Z,99.77
2019-05-10T18:36:03.526Z,99.13
2019-05-10T18:38:39.000Z,104.37
2019-05-10T18:41:14.933Z,107.83
2019-05-10T18:43:48.976Z,98.73
2019-05-10T18:46:24.576Z,111.90
2019-05-10T18:49:04.104Z,110.20
2019-05-10T18:51:38.573Z,104.95
2019-05-10T18:54:14.022Z,107.50
2019-05-10T18:56:49.784Z,102.53
2019-05-10T18:59:29.026Z,117.87
2019-05-10T19:02:03.310Z,118.67
2019-05-10T19:04:36.749Z,105.03
2019-05-10T19:07:14.972Z,104.47
2019-05-10T19:09:49.123Z,109.20
2019-05-10T19:12:23.673Z,128.80
2019-05-10T19:15:02.199Z,118.50
2019-05-10T19:17:40.358Z,99.93
2019-05-10T19:20:16.149Z,112.50
2019-05-10T19:22:50.243Z,123.20
2019-05-10T19:25:24.929Z,123.47
2019-05-10T19:27:59.266Z,116.20
2019-05-10T19:30:38.163Z,114.67
2019-05-10T19:33:12.482Z,108.12
2019-05-10T19:35:46.745Z,114.15
2019-05-10T19:38:20.941Z,127.87
2019-05-10T19:41:00.401Z,119.33
2019-05-10T19:43:37.244Z,119.10
2019-05-10T19:46:11.837Z,109.83
2019-05-10T19:48:48.244Z,118.70
2019-05-10T19:51:57.508Z,108.67
2019-05-10T19:54:32.798Z,108.03
2019-05-10T19:57:15.331Z,115.60
2019-05-10T19:59:46.603Z,115.93
2019-05-10T20:02:17.958Z,120.37
2019-05-10T20:04:54.017Z,112.80
2019-05-10T20:07:44.085Z,119.17
2019-05-10T20:10:07.867Z,111.40
2019-05-10T20:12:45.679Z,112.97
2019-05-10T20:15:20.919Z,107.60
2019-05-10T20:17:54.531Z,111.57
2019-05-10T20:20:29.189Z,107.73
2019-05-10T20:23:04.072Z,100.83
2019-05-10T20:25:40.486Z,122.10
2019-05-10T20:28:19.780Z,110.48
2019-05-10T20:30:54.440Z,105.27
2019-05-10T20:33:29.803Z,107.33
2019-05-10T20:36:05.764Z,104.97
2019-05-10T20:38:39.962Z,114.90
2019-05-10T20:41:16.420Z,112.83
2019-05-10T20:43:50.370Z,98.92
2019-05-10T20:46:24.842Z,96.93
2019-05-10T20:48:58.927Z,104.87
2019-05-10T20:51:32.870Z,97.13
2019-05-10T20:54:07.160Z,119.30
2019-05-10T20:56:42.140Z,100.80
2019-05-10T20:59:16.395Z,108.17
2019-05-10T21:01:54.522Z,99.67
2019-05-10T21:04:28.373Z,86.70
2019-05-10T21:07:02.005Z,91.63
2019-05-10T21:09:36.253Z,85.28
2019-05-10T21:12:10.121Z,91.87
2019-05-10T21:14:45.109Z,84.83
2019-05-10T21:17:18.803Z,89.07
2019-05-10T21:19:52.350Z,88.87
2019-05-10T21:22:26.163Z,102.62
2019-05-10T21:25:21.235Z,84.83
2019-05-10T21:27:54.957Z,98.52
2019-05-10T21:30:28.665Z,98.33
2019-05-10T21:33:02.745Z,88.23
2019-05-10T21:35:37.357Z,99.67
2019-05-10T21:38:12.636Z,84.57
2019-05-10T21:40:46.330Z,88.00
2019-05-10T21:43:21.249Z,81.90
2019-05-10T21:45:56.066Z,90.20
2019-05-10T21:48:31.420Z,92.43
2019-05-10T21:51:07.428Z,91.70
2019-05-10T21:53:42.755Z,90.83
2019-05-10T21:56:18.236Z,91.80
2019-05-10T21:58:52.150Z,99.97
2019-05-10T22:01:48.384Z,103.20
2019-05-10T22:04:22.108Z,101.53
2019-05-10T22:06:55.924Z,85.30
2019-05-10T22:09:30.128Z,88.30
2019-05-10T22:12:05.894Z,96.67
2019-05-10T22:14:42.779Z,84.87
2019-05-10T22:17:16.522Z,95.27
2019-05-10T22:19:50.668Z,89.47
2019-05-10T22:22:26.530Z,87.07
2019-05-10T22:25:00.561Z,94.67
2019-05-10T22:27:34.401Z,95.80
2019-05-10T22:30:12.508Z,102.43
2019-05-10T22:32:47.713Z,96.97
2019-05-10T22:35:21.847Z,89.70
2019-05-10T22:37:56.322Z,94.65
2019-05-10T22:40:30.560Z,94.50
2019-05-10T22:43:04.937Z,89.97
2019-05-10T22:45:38.897Z,106.77
2019-05-10T22:48:13.951Z,94.97
2019-05-10T22:50:48.540Z,97.27
2019-05-10T22:53:23.110Z,102.00
2019-05-10T22:55:57.586Z,107.47
2019-05-10T22:58:32.209Z,95.03
2019-05-10T23:01:08.281Z,98.43
2019-05-10T23:03:43.123Z,104.63
2019-05-10T23:06:18.048Z,98.33
2019-05-10T23:08:52.141Z,92.97
2019-05-10T23:11:26.634Z,89.73
2019-05-10T23:14:02.303Z,91.67
2019-05-10T23:16:35.754Z,115.47
2019-05-10T23:19:10.057Z,90.80
2019-05-10T23:21:44.704Z,101.50
2019-05-10T23:24:18.923Z,93.70
2019-05-10T23:26:56.017Z,93.60
2019-05-10T23:29:31.789Z,93.87
2019-05-10T23:32:08.154Z,93.13
2019-05-10T23:34:42.063Z,82.17
2019-05-10T23:37:16.231Z,87.80
2019-05-10T23:39:53.344Z,74.37
2019-05-10T23:42:33.669Z,73.80
2019-05-10T23:45:08.431Z,72.23
2019-05-10T23:47:45.476Z,71.60
2019-05-10T23:50:20.665Z,74.75
2019-05-10T23:52:54.938Z,77.67
2019-05-10T23:55:31.805Z,89.50
2019-05-10T23:58:07.379Z,72.03
